Time;durP1;ratioP1;P1;durP2;ratioP2;P2;SDS_P1;SDS_P2;PMS_P1;PMS_P2;Temp;Humidity;BMP_temperature;BMP_pressure;BME280_temperature;BME280_humidity;BME280_pressure;Samples;Min_cycle;Max_cycle;Signal;HPM_P1;HPM_P2
2023/10/21 00:02:40;;;;;;;3.90;2.47;;;;;11.30;97941.00;;;;5047531;28;20303;-71
2023/10/21 00:05:27;;;;;;;5.90;2.70;;;;;11.30;97949.00;;;;5041315;28;20288;-70
2023/10/21 00:08:15;;;;;;;4.23;2.47;;;;;11.30;97952.00;;;;5047317;28;20210;-71
2023/10/21 00:11:02;;;;;;;5.30;2.90;;;;;11.20;97942.00;;;;5043688;28;20217;-71
2023/10/21 00:13:49;;;;;;;6.53;2.70;;;;;11.30;97934.00;;;;5043171;28;20212;-74
2023/10/21 00:16:36;;;;;;;5.90;2.97;;;;;11.30;97942.00;;;;5048401;28;20229;-71
2023/10/21 00:19:24;;;;;;;6.77;2.70;;;;;11.20;97945.00;;;;5046316;28;20753;-72
2023/10/21 00:22:10;;;;;;;4.13;2.53;;;;;11.20;97941.00;;;;5044025;28;20243;-72
2023/10/21 00:24:58;;;;;;;3.47;2.60;;;;;11.20;97950.00;;;;5043067;28;20275;-72
2023/10/21 00:27:47;;;;;;;3.53;2.40;;;;;11.20;97950.00;;;;5044972;28;20308;-72
2023/10/21 00:30:33;;;;;;;4.53;2.80;;;;;11.20;97951.00;;;;5046940;28;20204;-73
2023/10/21 00:33:19;;;;;;;3.87;2.27;;;;;11.20;97964.00;;;;5041510;28;20217;-71
2023/10/21 00:36:06;;;;;;;5.90;2.70;;;;;11.20;97958.00;;;;5041003;28;20726;-71
2023/10/21 00:38:52;;;;;;;4.47;2.50;;;;;11.20;97961.00;;;;5044799;28;20582;-71
2023/10/21 00:41:40;;;;;;;3.33;2.20;;;;;11.10;97974.00;;;;5047837;28;20348;-71
2023/10/21 00:44:26;;;;;;;3.03;2.23;;;;;11.20;97971.00;;;;5045322;28;20221;-72
2023/10/21 00:47:12;;;;;;;4.37;2.33;;;;;11.20;97978.00;;;;5048252;28;20233;-73
2023/10/21 00:50:01;;;;;;;6.93;2.47;;;;;11.20;97978.00;;;;5044398;28;20217;-69
2023/10/21 00:52:48;;;;;;;3.83;2.40;;;;;11.20;97985.00;;;;5047860;28;20348;-71
2023/10/21 00:55:35;;;;;;;3.90;2.43;;;;;11.30;97981.00;;;;5045432;28;20275;-70
2023/10/21 00:58:25;;;;;;;3.43;2.50;;;;;11.30;97994.00;;;;5045025;28;20303;-74
2023/10/21 01:01:13;;;;;;;6.57;2.80;;;;;11.30;97988.00;;;;5046758;28;20224;-72
2023/10/21 01:03:59;;;;;;;6.47;2.80;;;;;11.40;97991.00;;;;5040207;28;20214;-73
2023/10/21 01:06:46;;;;;;;5.73;2.80;;;;;11.50;97990.00;;;;5046853;28;20232;-71
2023/10/21 01:09:32;;;;;;;3.47;2.60;;;;;11.50;97988.00;;;;5043077;28;20717;-72
2023/10/21 01:12:18;;;;;;;3.87;2.87;;;;;11.60;97997.00;;;;5047171;28;20232;-73
2023/10/21 01:15:08;;;;;;;6.27;3.03;;;;;11.60;97998.00;;;;5037134;28;20336;-73
2023/10/21 01:17:54;;;;;;;8.13;2.60;;;;;11.60;97995.00;;;;5038101;28;20597;-71
2023/10/21 01:20:41;;;;;;;5.50;2.70;;;;;11.70;98000.00;;;;5045396;28;20656;-72
2023/10/21 01:23:29;;;;;;;6.43;2.90;;;;;11.70;97997.00;;;;5044693;28;20220;-72
2023/10/21 01:26:16;;;;;;;5.33;2.87;;;;;11.70;97988.00;;;;5040324;28;20280;-71
2023/10/21 01:29:02;;;;;;;6.60;2.93;;;;;11.70;97999.00;;;;5042387;28;20585;-71
2023/10/21 01:31:48;;;;;;;6.50;2.97;;;;;11.70;97999.00;;;;5045540;28;20290;-71
2023/10/21 01:34:34;;;;;;;11.17;3.63;;;;;11.70;98000.00;;;;5042043;28;20213;-72
2023/10/21 01:37:21;;;;;;;6.97;2.77;;;;;11.80;97998.00;;;;5047201;28;20236;-72
2023/10/21 01:40:10;;;;;;;6.17;2.70;;;;;11.80;98008.00;;;;5041843;28;20216;-71
2023/10/21 01:42:56;;;;;;;7.97;3.10;;;;;11.80;98012.00;;;;5036599;28;20225;-75
2023/10/21 01:45:42;;;;;;;8.93;3.00;;;;;11.80;98026.00;;;;5044075;28;20335;-72
2023/10/21 01:48:29;;;;;;;9.07;2.97;;;;;11.80;98024.00;;;;5042896;28;20221;-74
2023/10/21 01:51:15;;;;;;;6.30;3.10;;;;;11.80;98035.00;;;;5039482;28;20337;-72
2023/10/21 01:54:01;;;;;;;5.23;2.90;;;;;11.80;98035.00;;;;5039955;28;20217;-73
2023/10/21 01:56:48;;;;;;;3.83;2.67;;;;;11.80;98038.00;;;;5045329;28;20615;-72
2023/10/21 01:59:38;;;;;;;5.83;2.70;;;;;11.80;98036.00;;;;5046030;28;20217;-73
2023/10/21 02:02:25;;;;;;;6.97;3.43;;;;;11.80;98043.00;;;;5041622;28;20291;-73
2023/10/21 02:05:12;;;;;;;6.43;2.80;;;;;11.90;98046.00;;;;5041118;28;20212;-72
2023/10/21 02:07:58;;;;;;;4.23;2.70;;;;;11.90;98042.00;;;;5037409;28;20371;-72
2023/10/21 02:10:44;;;;;;;5.87;3.00;;;;;11.90;98038.00;;;;5040590;28;20339;-70
2023/10/21 02:13:32;;;;;;;9.27;3.00;;;;;11.90;98058.00;;;;5043586;28;20313;-71
2023/10/21 02:16:19;;;;;;;10.00;2.90;;;;;11.90;98050.00;;;;5042690;28;20228;-75
2023/10/21 02:19:05;;;;;;;5.63;2.80;;;;;11.90;98056.00;;;;5039709;28;20375;-75
2023/10/21 02:21:51;;;;;;;10.20;3.20;;;;;11.90;98061.00;;;;5036521;28;20739;-73
2023/10/21 02:24:38;;;;;;;9.07;3.00;;;;;12.00;98062.00;;;;5038836;28;20689;-71
2023/10/21 02:27:24;;;;;;;5.43;2.80;;;;;11.90;98068.00;;;;5042561;28;20236;-72
2023/10/21 02:30:16;;;;;;;6.37;2.57;;;;;12.00;98075.00;;;;5041617;28;20596;-72
2023/10/21 02:33:03;;;;;;;7.67;3.10;;;;;11.90;98072.00;;;;5036766;28;20219;-71
2023/10/21 02:35:52;;;;;;;14.03;2.87;;;;;12.00;98083.00;;;;5044756;28;20208;-70
2023/10/21 02:38:38;;;;;;;10.90;2.90;;;;;11.90;98080.00;;;;5043027;28;20209;-73
2023/10/21 02:41:24;;;;;;;8.10;3.00;;;;;11.90;98098.00;;;;5042774;28;20248;-71
2023/10/21 02:44:11;;;;;;;6.50;2.87;;;;;11.90;98092.00;;;;5039664;28;20212;-73
2023/10/21 02:46:59;;;;;;;5.30;3.03;;;;;12.00;98097.00;;;;5044653;28;20828;-72
2023/10/21 02:49:45;;;;;;;3.67;2.80;;;;;12.00;98100.00;;;;5045954;28;20272;-72
2023/10/21 02:52:31;;;;;;;4.67;2.73;;;;;12.00;98114.00;;;;5039952;28;20642;-73
2023/10/21 02:55:18;;;;;;;7.70;2.63;;;;;12.00;98111.00;;;;5034767;28;20291;-74
2023/10/21 02:58:04;;;;;;;10.37;3.07;;;;;12.00;98124.00;;;;5038948;28;20851;-72
2023/10/21 03:00:51;;;;;;;3.03;2.50;;;;;11.90;98115.00;;;;5049289;28;20622;-72
2023/10/21 03:03:38;;;;;;;3.90;2.40;;;;;12.00;98121.00;;;;5042750;28;20229;-71
2023/10/21 03:06:25;;;;;;;6.40;3.30;;;;;11.90;98124.00;;;;5047244;28;20228;-71
2023/10/21 03:09:11;;;;;;;9.00;3.40;;;;;11.90;98125.00;;;;5049072;28;20701;-72
2023/10/21 03:11:58;;;;;;;10.80;3.00;;;;;12.00;98127.00;;;;5041769;28;20316;-71
2023/10/21 03:14:44;;;;;;;6.70;3.20;;;;;12.00;98138.00;;;;5042805;28;20574;-74
2023/10/21 03:17:30;;;;;;;15.03;3.30;;;;;12.00;98147.00;;;;5047017;28;20819;-73
2023/10/21 03:20:18;;;;;;;9.93;2.97;;;;;12.00;98146.00;;;;5044564;28;20236;-73
2023/10/21 03:23:05;;;;;;;6.43;3.30;;;;;12.00;98150.00;;;;5042305;28;20232;-74
2023/10/21 03:25:55;;;;;;;8.70;3.60;;;;;12.00;98156.00;;;;5048119;28;20220;-72
2023/10/21 03:28:43;;;;;;;8.40;3.63;;;;;12.00;98155.00;;;;5041973;28;20208;-73
2023/10/21 03:31:29;;;;;;;10.13;3.90;;;;;12.10;98159.00;;;;5041963;28;20204;-70
2023/10/21 03:34:15;;;;;;;6.53;3.83;;;;;12.10;98165.00;;;;5037038;28;20804;-72
2023/10/21 03:37:03;;;;;;;9.53;3.77;;;;;12.10;98174.00;;;;5044846;28;20237;-73
2023/10/21 03:39:50;;;;;;;8.40;3.60;;;;;12.10;98172.00;;;;5049239;28;20221;-71
2023/10/21 03:42:37;;;;;;;8.53;3.73;;;;;12.10;98179.00;;;;5048251;28;20228;-72
2023/10/21 03:45:23;;;;;;;6.67;3.80;;;;;12.10;98186.00;;;;5042790;28;20209;-72
2023/10/21 03:48:09;;;;;;;7.97;3.00;;;;;12.10;98181.00;;;;5042540;28;20886;-72
2023/10/21 03:51:04;;;;;;;5.90;3.63;;;;;12.10;98185.00;;;;5047922;28;20205;-72
2023/10/21 03:53:52;;;;;;;9.80;3.17;;;;;12.10;98190.00;;;;5042589;28;20217;-72
2023/10/21 03:56:38;;;;;;;5.43;3.00;;;;;12.10;98204.00;;;;5044004;28;20573;-72
2023/10/21 03:59:24;;;;;;;5.57;3.30;;;;;12.10;98203.00;;;;5046500;28;20429;-72
2023/10/21 04:02:11;;;;;;;12.97;4.50;;;;;12.10;98210.00;;;;5035649;28;20205;-74
2023/10/21 04:04:57;;;;;;;7.17;3.87;;;;;12.10;98206.00;;;;5042905;28;20340;-74
2023/10/21 04:07:44;;;;;;;6.77;3.77;;;;;12.10;98212.00;;;;5044878;28;20326;-73
2023/10/21 04:10:32;;;;;;;6.13;3.80;;;;;12.10;98219.00;;;;5042167;28;20208;-72
2023/10/21 04:13:18;;;;;;;8.40;3.70;;;;;12.10;98225.00;;;;5039281;28;20214;-71
2023/10/21 04:16:05;;;;;;;8.10;3.70;;;;;12.10;98234.00;;;;5045811;28;20228;-73
2023/10/21 04:18:52;;;;;;;6.73;3.47;;;;;12.20;98236.00;;;;5037655;28;20225;-72
2023/10/21 04:21:38;;;;;;;7.03;4.07;;;;;12.20;98229.00;;;;5037186;28;20210;-73
2023/10/21 04:24:24;;;;;;;9.43;3.90;;;;;12.20;98238.00;;;;5039943;28;20303;-74
2023/10/21 04:27:12;;;;;;;8.23;4.13;;;;;12.20;98238.00;;;;5040242;28;20256;-74
2023/10/21 04:29:58;;;;;;;7.13;4.17;;;;;12.20;98245.00;;;;5043562;28;20214;-72
2023/10/21 04:32:45;;;;;;;9.20;3.97;;;;;12.30;98260.00;;;;5042373;28;20706;-73
2023/10/21 04:35:32;;;;;;;9.43;4.67;;;;;12.30;98268.00;;;;5045301;28;20208;-73
2023/10/21 04:38:18;;;;;;;9.07;4.57;;;;;12.30;98269.00;;;;5039504;28;20233;-73
2023/10/21 04:41:07;;;;;;;8.73;4.23;;;;;12.30;98275.00;;;;5045041;28;20208;-71
2023/10/21 04:43:55;;;;;;;10.17;4.40;;;;;12.40;98274.00;;;;5042529;28;20365;-70
2023/10/21 04:46:42;;;;;;;13.33;4.67;;;;;12.40;98271.00;;;;5042649;28;20307;-73
2023/10/21 04:49:28;;;;;;;7.40;4.53;;;;;12.40;98280.00;;;;5044253;28;20212;-72
2023/10/21 04:52:15;;;;;;;9.77;4.50;;;;;12.40;98279.00;;;;5038315;28;20336;-72
2023/10/21 04:55:02;;;;;;;8.90;4.20;;;;;12.40;98290.00;;;;5046339;28;20343;-73
2023/10/21 04:57:48;;;;;;;11.27;4.23;;;;;12.40;98292.00;;;;5039866;28;20733;-73
2023/10/21 05:00:36;;;;;;;8.87;4.17;;;;;12.40;98296.00;;;;5035834;28;20690;-73
2023/10/21 05:03:22;;;;;;;5.47;3.57;;;;;12.40;98302.00;;;;5039543;28;20651;-75
2023/10/21 05:06:09;;;;;;;12.37;4.37;;;;;12.40;98302.00;;;;5045761;28;20889;-73
2023/10/21 05:08:55;;;;;;;10.73;4.20;;;;;12.40;98310.00;;;;5040558;28;20312;-72
2023/10/21 05:11:42;;;;;;;7.10;3.83;;;;;12.40;98321.00;;;;5037688;28;20288;-73
2023/10/21 05:14:28;;;;;;;8.50;3.90;;;;;12.40;98334.00;;;;5031371;28;20213;-72
2023/10/21 05:17:15;;;;;;;9.07;3.97;;;;;12.40;98343.00;;;;5040093;28;20598;-73
2023/10/21 05:20:02;;;;;;;9.20;4.17;;;;;12.40;98351.00;;;;5045590;28;20212;-72
2023/10/21 05:22:49;;;;;;;11.20;4.50;;;;;12.50;98348.00;;;;5043183;28;20356;-73
2023/10/21 05:25:35;;;;;;;8.63;4.97;;;;;12.60;98365.00;;;;5040570;28;20209;-73
2023/10/21 05:28:22;;;;;;;6.57;4.30;;;;;12.70;98368.00;;;;5038822;28;20347;-73
2023/10/21 05:31:09;;;;;;;9.37;4.50;;;;;12.70;98375.00;;;;5037285;28;20350;-72
2023/10/21 05:33:57;;;;;;;9.43;4.40;;;;;12.70;98379.00;;;;5042769;28;20233;-73
2023/10/21 05:36:44;;;;;;;9.17;4.23;;;;;12.60;98378.00;;;;5039609;28;20230;-70
2023/10/21 05:39:30;;;;;;;11.03;4.27;;;;;12.70;98389.00;;;;5041598;28;20256;-72
2023/10/21 05:42:16;;;;;;;7.90;4.20;;;;;12.80;98391.00;;;;5038249;28;20217;-71
2023/10/21 05:45:03;;;;;;;8.90;4.30;;;;;12.80;98395.00;;;;5037011;28;20233;-72
2023/10/21 05:47:50;;;;;;;10.50;4.80;;;;;12.80;98399.00;;;;5039215;28;20236;-72
2023/10/21 05:50:37;;;;;;;10.10;4.53;;;;;12.80;98410.00;;;;5042404;28;20280;-72
2023/10/21 05:53:24;;;;;;;8.03;4.40;;;;;12.80;98414.00;;;;5039208;28;20205;-73
2023/10/21 05:56:12;;;;;;;8.87;4.67;;;;;12.90;98414.00;;;;5032696;28;20241;-72
2023/10/21 05:58:58;;;;;;;9.73;4.60;;;;;12.90;98405.00;;;;5042072;28;20264;-70
2023/10/21 06:01:44;;;;;;;10.90;4.63;;;;;12.90;98423.00;;;;5032058;28;20217;-73
2023/10/21 06:04:31;;;;;;;8.37;4.73;;;;;12.90;98423.00;;;;5036315;28;20352;-70
2023/10/21 06:07:19;;;;;;;8.63;4.53;;;;;12.90;98429.00;;;;5045834;28;20236;-71
2023/10/21 06:10:06;;;;;;;11.53;5.10;;;;;12.90;98438.00;;;;5044123;28;20367;-72
2023/10/21 06:12:53;;;;;;;7.97;4.50;;;;;12.90;98451.00;;;;5041515;28;20255;-74
2023/10/21 06:15:39;;;;;;;7.83;4.40;;;;;12.90;98453.00;;;;5044638;28;20219;-72
2023/10/21 06:18:25;;;;;;;9.43;4.13;;;;;12.90;98458.00;;;;5037340;28;20231;-73
2023/10/21 06:21:11;;;;;;;6.37;4.00;;;;;12.80;98462.00;;;;5045866;28;20698;-74
2023/10/21 06:23:59;;;;;;;9.20;4.73;;;;;12.80;98471.00;;;;5046427;28;20725;-73
2023/10/21 06:26:45;;;;;;;7.07;4.43;;;;;12.80;98466.00;;;;5044286;28;20236;-73
2023/10/21 06:29:32;;;;;;;11.53;4.57;;;;;12.80;98471.00;;;;5044620;28;20252;-73
2023/10/21 06:32:18;;;;;;;7.13;4.57;;;;;12.70;98482.00;;;;5041300;28;20218;-73
2023/10/21 06:35:07;;;;;;;7.83;4.17;;;;;12.70;98488.00;;;;5038203;28;20217;-73
2023/10/21 06:37:55;;;;;;;7.53;4.47;;;;;12.70;98494.00;;;;5029311;28;20308;-72
2023/10/21 06:40:44;;;;;;;6.23;4.17;;;;;12.70;98496.00;;;;5037849;28;20205;-74
2023/10/21 06:43:47;;;;;;;9.90;4.40;;;;;12.80;98503.00;;;;5041272;28;20220;-73
2023/10/21 06:46:34;;;;;;;6.80;3.97;;;;;12.70;98516.00;;;;5041381;28;20335;-72
2023/10/21 06:49:20;;;;;;;23.40;4.30;;;;;12.70;98515.00;;;;5035756;28;20211;-75
2023/10/21 06:52:06;;;;;;;9.37;4.40;;;;;12.70;98516.00;;;;5042659;28;20212;-74
2023/10/21 06:54:53;;;;;;;8.80;4.33;;;;;12.90;98527.00;;;;5037596;28;20228;-72
2023/10/21 06:57:42;;;;;;;8.00;4.60;;;;;12.90;98535.00;;;;5036234;28;20317;-73
2023/10/21 07:00:28;;;;;;;8.43;4.33;;;;;13.00;98542.00;;;;5032737;28;20547;-73
2023/10/21 07:03:14;;;;;;;8.93;4.90;;;;;13.10;98551.00;;;;5039434;28;20352;-73
2023/10/21 07:06:01;;;;;;;9.00;4.30;;;;;13.10;98562.00;;;;5037669;28;20304;-74
2023/10/21 07:08:47;;;;;;;12.90;4.40;;;;;13.20;98555.00;;;;5046727;28;20226;-75
2023/10/21 07:11:33;;;;;;;6.93;4.23;;;;;13.30;98560.00;;;;5038305;28;20589;-74
2023/10/21 07:14:21;;;;;;;7.53;4.30;;;;;13.40;98563.00;;;;5045317;28;20239;-76
2023/10/21 07:17:08;;;;;;;6.97;4.10;;;;;13.50;98563.00;;;;5037628;28;20316;-73
2023/10/21 07:19:56;;;;;;;6.73;4.07;;;;;13.60;98570.00;;;;5041540;28;20213;-73
2023/10/21 07:22:43;;;;;;;6.93;4.60;;;;;13.60;98585.00;;;;5036973;28;20584;-73
2023/10/21 07:25:30;;;;;;;7.87;4.23;;;;;13.60;98584.00;;;;5044940;28;20229;-74
2023/10/21 07:28:16;;;;;;;5.23;3.90;;;;;13.60;98593.00;;;;5041750;28;20588;-71
2023/10/21 07:31:05;;;;;;;8.00;4.20;;;;;13.70;98592.00;;;;5044013;28;20786;-72
2023/10/21 07:33:52;;;;;;;5.57;3.73;;;;;13.80;98603.00;;;;5041446;28;20425;-71
2023/10/21 07:36:38;;;;;;;6.70;4.10;;;;;13.90;98612.00;;;;5043916;28;20234;-72
2023/10/21 07:39:26;;;;;;;7.20;4.50;;;;;13.90;98620.00;;;;5048455;28;20340;-70
2023/10/21 07:42:14;;;;;;;6.13;3.57;;;;;13.90;98623.00;;;;5045556;28;20216;-72
2023/10/21 07:45:00;;;;;;;6.03;4.27;;;;;14.00;98624.00;;;;5046037;28;20355;-72
2023/10/21 07:47:48;;;;;;;9.30;4.00;;;;;14.00;98626.00;;;;5039925;28;20444;-72
2023/10/21 07:50:35;;;;;;;3.87;3.23;;;;;14.10;98640.00;;;;5041535;28;20287;-71
2023/10/21 07:53:21;;;;;;;5.83;3.30;;;;;14.10;98643.00;;;;5040234;28;20217;-72
2023/10/21 07:56:08;;;;;;;9.20;3.23;;;;;14.20;98639.00;;;;5040155;28;20239;-72
2023/10/21 07:58:56;;;;;;;4.93;3.20;;;;;14.10;98646.00;;;;5040867;28;20213;-73
2023/10/21 08:01:42;;;;;;;4.27;2.93;;;;;14.20;98651.00;;;;5042912;28;20231;-72
2023/10/21 08:04:29;;;;;;;3.53;2.93;;;;;14.20;98661.00;;;;5043062;28;20217;-73
2023/10/21 08:07:17;;;;;;;2.97;2.43;;;;;14.30;98664.00;;;;5043934;28;20230;-71
2023/10/21 08:10:05;;;;;;;6.30;2.67;;;;;14.20;98677.00;;;;5049792;28;20331;-72
2023/10/21 08:12:51;;;;;;;2.67;2.20;;;;;14.20;98679.00;;;;5047944;28;20288;-72
2023/10/21 08:15:38;;;;;;;3.50;2.10;;;;;14.20;98683.00;;;;5044601;28;20227;-72
2023/10/21 08:18:24;;;;;;;3.50;2.40;;;;;14.20;98686.00;;;;5047447;28;20215;-72
2023/10/21 08:21:13;;;;;;;3.63;1.87;;;;;14.20;98703.00;;;;5046573;28;20865;-72
2023/10/21 08:23:59;;;;;;;3.87;2.40;;;;;14.30;98710.00;;;;5042740;28;20284;-73
2023/10/21 08:26:45;;;;;;;2.77;1.93;;;;;14.30;98712.00;;;;5042050;28;20275;-71
2023/10/21 08:29:31;;;;;;;2.80;1.87;;;;;14.30;98711.00;;;;5040826;28;20213;-73
2023/10/21 08:32:18;;;;;;;2.00;1.80;;;;;14.30;98711.00;;;;5037078;28;20722;-71
2023/10/21 08:35:09;;;;;;;4.63;2.20;;;;;14.30;98721.00;;;;5044443;28;20226;-74
2023/10/21 08:37:57;;;;;;;2.23;2.03;;;;;14.40;98722.00;;;;5041818;28;20237;-72
2023/10/21 08:40:46;;;;;;;2.30;2.10;;;;;14.30;98725.00;;;;5042767;28;20212;-73
2023/10/21 08:43:33;;;;;;;4.23;2.10;;;;;14.40;98747.00;;;;5042563;28;20214;-71
2023/10/21 08:46:19;;;;;;;2.67;2.00;;;;;14.30;98747.00;;;;5040981;28;20241;-72
2023/10/21 08:49:07;;;;;;;3.07;2.23;;;;;14.30;98771.00;;;;5045160;28;20224;-72
2023/10/21 08:51:54;;;;;;;2.40;2.20;;;;;14.30;98768.00;;;;5039077;28;20218;-72
2023/10/21 08:54:43;;;;;;;3.13;2.40;;;;;14.30;98766.00;;;;5042951;28;20209;-73
2023/10/21 08:57:30;;;;;;;3.47;3.10;;;;;14.30;98765.00;;;;5040990;28;20259;-73
2023/10/21 09:00:17;;;;;;;6.60;3.37;;;;;14.50;98784.00;;;;5050000;28;20214;-73
2023/10/21 09:03:04;;;;;;;3.33;2.60;;;;;14.50;98787.00;;;;5040654;28;20524;-72
2023/10/21 09:06:12;;;;;;;2.47;2.27;;;;;14.50;98798.00;;;;5041734;28;20350;-70
2023/10/21 09:08:58;;;;;;;2.90;2.60;;;;;14.50;98806.00;;;;5046072;28;20292;-72
2023/10/21 09:11:47;;;;;;;8.57;6.47;;;;;14.60;98802.00;;;;5032857;28;20204;-72
2023/10/21 09:14:51;;;;;;;3.77;2.17;;;;;14.80;98805.00;;;;5043069;28;20213;-71
2023/10/21 09:17:39;;;;;;;3.17;2.17;;;;;15.00;98796.00;;;;5047500;28;20275;-72
2023/10/21 09:20:25;;;;;;;5.40;2.87;;;;;15.10;98796.00;;;;5046385;28;20221;-72
2023/10/21 09:23:12;;;;;;;1.60;1.50;;;;;15.20;98817.00;;;;5048649;28;20358;-72
2023/10/21 09:25:59;;;;;;;2.70;2.33;;;;;15.20;98808.00;;;;5042431;28;20228;-72
2023/10/21 09:28:47;;;;;;;1.60;1.23;;;;;15.30;98824.00;;;;5046385;28;20335;-72
2023/10/21 09:31:47;;;;;;;2.00;1.40;;;;;15.10;98818.00;;;;5046499;28;20795;-71
2023/10/21 09:34:34;;;;;;;1.63;1.30;;;;;14.90;98833.00;;;;5041855;28;20345;-72
2023/10/21 09:37:26;;;;;;;2.10;1.33;;;;;14.90;98829.00;;;;5045340;28;20368;-73
2023/10/21 09:40:13;;;;;;;1.33;1.23;;;;;15.00;98823.00;;;;5037624;28;20213;-73
2023/10/21 09:43:02;;;;;;;2.87;1.50;;;;;14.80;98834.00;;;;5042142;28;21034;-72
2023/10/21 09:45:53;;;;;;;4.03;1.60;;;;;14.70;98842.00;;;;5040834;28;20244;-73
2023/10/21 09:48:41;;;;;;;2.20;1.60;;;;;14.70;98847.00;;;;5047401;28;20210;-73
2023/10/21 09:51:31;;;;;;;3.60;3.10;;;;;14.70;98851.00;;;;5045737;28;20335;-72
2023/10/21 09:54:22;;;;;;;3.00;2.50;;;;;14.70;98852.00;;;;5045285;28;20288;-72
2023/10/21 09:57:11;;;;;;;1.77;1.67;;;;;14.70;98855.00;;;;5040922;28;20263;-72
2023/10/21 10:00:00;;;;;;;4.30;1.53;;;;;14.70;98855.00;;;;5039952;28;20209;-72
2023/10/21 10:02:49;;;;;;;1.63;1.20;;;;;14.70;98870.00;;;;5036786;28;20201;-72
2023/10/21 10:05:38;;;;;;;1.33;1.20;;;;;14.70;98866.00;;;;5046728;28;20214;-72
2023/10/21 10:08:26;;;;;;;2.43;1.40;;;;;14.70;98867.00;;;;5045091;28;20658;-72
2023/10/21 10:11:16;;;;;;;4.07;1.43;;;;;14.70;98865.00;;;;5040141;28;20210;-72
2023/10/21 10:14:03;;;;;;;2.80;1.70;;;;;14.80;98883.00;;;;5041149;28;20206;-72
2023/10/21 10:16:51;;;;;;;4.13;1.60;;;;;14.90;98886.00;;;;5038655;28;20238;-73
2023/10/21 10:19:40;;;;;;;1.60;1.20;;;;;14.90;98892.00;;;;5040247;28;20726;-72
2023/10/21 10:22:31;;;;;;;2.30;1.37;;;;;15.00;98885.00;;;;5046664;28;20262;-74
2023/10/21 10:25:25;;;;;;;1.63;1.43;;;;;15.10;98898.00;;;;5038035;28;20227;-72
2023/10/21 10:28:17;;;;;;;2.80;2.03;;;;;15.40;98893.00;;;;5034630;28;20220;-73
2023/10/21 10:31:04;;;;;;;2.80;1.40;;;;;15.60;98885.00;;;;5044490;28;20259;-71
2023/10/21 10:33:52;;;;;;;1.40;0.90;;;;;15.60;98897.00;;;;5046532;28;20286;-73
2023/10/21 10:36:40;;;;;;;1.47;1.10;;;;;15.60;98905.00;;;;5036030;28;20235;-73
2023/10/21 10:39:44;;;;;;;1.33;1.00;;;;;15.60;98900.00;;;;5045325;28;20713;-73
2023/10/21 10:42:31;;;;;;;1.13;0.97;;;;;15.70;98901.00;;;;5041828;28;20705;-74
2023/10/21 10:45:18;;;;;;;1.43;1.10;;;;;16.10;98902.00;;;;5040777;28;20216;-71
2023/10/21 10:48:07;;;;;;;1.80;1.00;;;;;16.20;98910.00;;;;5046123;28;20777;-73
2023/10/21 10:50:57;;;;;;;2.07;1.10;;;;;16.50;98906.00;;;;5040431;28;20215;-74
2023/10/21 10:53:55;;;;;;;2.60;1.10;;;;;16.60;98909.00;;;;5043527;28;20879;-74
2023/10/21 10:56:43;;;;;;;2.33;1.60;;;;;16.70;98914.00;;;;5046803;28;20244;-73
2023/10/21 10:59:31;;;;;;;12.10;3.20;;;;;16.70;98919.00;;;;5046913;28;20585;-73
2023/10/21 11:02:17;;;;;;;4.90;2.13;;;;;16.60;98924.00;;;;5040897;28;20225;-72
2023/10/21 11:05:15;;;;;;;1.57;1.00;;;;;16.60;98924.00;;;;5041725;28;20769;-71
2023/10/21 11:08:01;;;;;;;2.00;1.23;;;;;16.80;98919.00;;;;5037977;28;20303;-74
2023/10/21 11:10:53;;;;;;;1.77;1.27;;;;;17.00;98924.00;;;;5048185;28;20343;-73
2023/10/21 11:13:39;;;;;;;1.23;0.80;;;;;17.00;98922.00;;;;5045977;28;20303;-72
2023/10/21 11:16:26;;;;;;;1.07;0.70;;;;;17.10;98935.00;;;;5041993;28;20229;-73
2023/10/21 11:19:13;;;;;;;0.80;0.80;;;;;17.10;98933.00;;;;5050886;28;20557;-74
2023/10/21 11:21:59;;;;;;;2.00;0.83;;;;;17.00;98933.00;;;;5043903;28;20212;-75
2023/10/21 11:24:45;;;;;;;1.67;0.97;;;;;16.90;98933.00;;;;5049900;28;20729;-71
2023/10/21 11:27:33;;;;;;;2.40;1.10;;;;;17.00;98939.00;;;;5046909;28;20372;-71
2023/10/21 11:30:22;;;;;;;1.90;0.90;;;;;17.20;98939.00;;;;5049263;28;20208;-71
2023/10/21 11:33:10;;;;;;;1.00;0.90;;;;;17.40;98943.00;;;;5045585;28;20271;-72
2023/10/21 11:35:57;;;;;;;1.70;1.00;;;;;17.40;98945.00;;;;5050634;28;20302;-74
2023/10/21 11:38:44;;;;;;;1.57;1.00;;;;;17.40;98945.00;;;;5042345;28;20206;-73
2023/10/21 11:41:31;;;;;;;0.80;0.80;;;;;17.40;98933.00;;;;5045629;28;20214;-72
2023/10/21 11:44:26;;;;;;;1.00;0.83;;;;;17.50;98935.00;;;;5039648;28;20232;-72
2023/10/21 11:47:12;;;;;;;1.13;1.00;;;;;17.70;98949.00;;;;5041523;28;20287;-71
2023/10/21 11:49:59;;;;;;;1.43;0.93;;;;;17.80;98947.00;;;;5035581;28;20208;-71
2023/10/21 11:52:45;;;;;;;1.20;0.80;;;;;18.00;98947.00;;;;5048966;28;20279;-72
2023/10/21 11:55:51;;;;;;;1.10;0.97;;;;;18.10;98940.00;;;;5044378;28;20610;-72
2023/10/21 12:03:45;;;;;;;1.00;0.73;;;;;17.70;98956.00;;;;5034811;28;20209;-71
2023/10/21 12:05:55;;;;;;;1.53;0.70;;;;;17.70;98962.00;;;;5042340;28;20295;-72
2023/10/21 12:15:07;;;;;;;1.07;0.70;;;;;17.60;98976.00;;;;5036302;28;20212;-71
2023/10/21 12:21:19;;;;;;;3.27;0.80;;;;;17.20;98977.00;;;;5047056;28;20217;-72
2023/10/21 12:24:35;;;;;;;3.23;1.03;;;;;17.10;98986.00;;;;5047498;28;20209;-71
2023/10/21 12:28:13;;;;;;;2.93;0.93;;;;;17.00;99004.00;;;;5044778;28;20248;-72
2023/10/21 12:39:58;;;;;;;1.43;0.83;;;;;16.80;99002.00;;;;5040382;28;20287;-72
2023/10/21 12:42:45;;;;;;;0.97;0.80;;;;;16.90;99009.00;;;;5043801;28;20213;-73
2023/10/21 12:45:35;;;;;;;1.80;0.90;;;;;16.90;99007.00;;;;5034592;28;20229;-71
2023/10/21 12:48:22;;;;;;;0.80;0.80;;;;;17.40;99020.00;;;;5044838;28;20282;-74
2023/10/21 12:51:14;;;;;;;1.03;0.80;;;;;17.60;99023.00;;;;5042580;28;20577;-72
2023/10/21 12:54:00;;;;;;;1.73;0.93;;;;;17.70;99020.00;;;;5035711;28;20204;-74
2023/10/21 12:56:59;;;;;;;3.37;1.10;;;;;17.70;99024.00;;;;5043914;28;20349;-73
2023/10/21 12:59:45;;;;;;;1.37;0.70;;;;;17.90;99017.00;;;;5043952;28;20291;-73
2023/10/21 13:02:35;;;;;;;0.90;0.80;;;;;17.90;99006.00;;;;5036129;28;20785;-74
2023/10/21 13:05:22;;;;;;;2.07;0.90;;;;;17.80;99028.00;;;;5033401;28;20832;-72
2023/10/21 13:08:13;;;;;;;2.97;1.00;;;;;17.50;99011.00;;;;5037924;28;20275;-73
2023/10/21 13:10:59;;;;;;;3.73;1.10;;;;;17.40;99023.00;;;;5038680;28;20208;-74
2023/10/21 13:13:46;;;;;;;1.27;0.90;;;;;17.40;99027.00;;;;5041072;28;20205;-72
2023/10/21 13:16:32;;;;;;;2.30;0.97;;;;;17.10;99028.00;;;;5045011;28;20239;-73
2023/10/21 13:19:19;;;;;;;1.30;1.00;;;;;16.90;99029.00;;;;5046180;28;20213;-73
2023/10/21 13:22:06;;;;;;;2.00;1.03;;;;;17.00;99033.00;;;;5031964;28;20213;-71
2023/10/21 13:24:54;;;;;;;1.67;0.80;;;;;17.10;99024.00;;;;5041113;28;20602;-72
2023/10/21 13:28:00;;;;;;;3.90;0.97;;;;;17.10;99027.00;;;;5040763;28;20966;-73
2023/10/21 13:30:48;;;;;;;2.13;0.90;;;;;17.10;99025.00;;;;5039649;28;20212;-71
2023/10/21 13:33:35;;;;;;;1.87;0.90;;;;;17.00;99022.00;;;;5037582;28;20217;-72
2023/10/21 13:36:23;;;;;;;2.17;0.87;;;;;16.90;99028.00;;;;5042154;28;20950;-73
2023/10/21 13:39:15;;;;;;;1.40;1.03;;;;;16.90;99023.00;;;;5040679;28;20216;-73
2023/10/21 13:42:05;;;;;;;3.60;1.10;;;;;16.70;99032.00;;;;5032711;28;20721;-74
2023/10/21 13:44:51;;;;;;;5.13;1.10;;;;;16.70;99033.00;;;;5038469;28;20710;-74
2023/10/21 13:47:38;;;;;;;4.17;1.20;;;;;16.80;99042.00;;;;5044466;28;20232;-73
2023/10/21 13:50:27;;;;;;;1.33;0.97;;;;;16.90;99048.00;;;;5039175;28;20213;-72
2023/10/21 13:53:15;;;;;;;3.80;1.20;;;;;17.10;99049.00;;;;5044656;28;20630;-72
2023/10/21 13:56:01;;;;;;;2.40;0.90;;;;;17.10;99039.00;;;;5040029;28;20213;-72
2023/10/21 13:58:49;;;;;;;2.70;0.90;;;;;17.10;99041.00;;;;5043489;28;20282;-72
2023/10/21 14:01:35;;;;;;;1.00;0.90;;;;;17.00;99042.00;;;;5035126;28;20237;-73
2023/10/21 14:04:22;;;;;;;5.70;1.20;;;;;16.90;99049.00;;;;5041185;28;20258;-73
2023/10/21 14:07:09;;;;;;;5.67;1.00;;;;;16.90;99053.00;;;;5040144;28;20721;-74
2023/10/21 14:09:56;;;;;;;5.67;1.20;;;;;16.80;99063.00;;;;5046705;28;20337;-73
2023/10/21 14:12:42;;;;;;;4.37;1.20;;;;;16.90;99057.00;;;;5044100;28;20748;-75
2023/10/21 14:15:30;;;;;;;3.27;1.00;;;;;16.80;99065.00;;;;5044894;28;20208;-71
2023/10/21 14:18:18;;;;;;;4.80;1.40;;;;;16.80;99060.00;;;;5040020;28;20684;-74
2023/10/21 14:21:07;;;;;;;4.40;1.20;;;;;16.80;99067.00;;;;5041366;28;22017;-73
2023/10/21 14:23:55;;;;;;;1.93;1.20;;;;;16.80;99083.00;;;;5040368;28;20916;-73